createdAt,value
2023-04-02T00:00:15.018Z,5.82
2023-04-02T00:03:01.509Z,5.80
2023-04-02T00:05:30.997Z,5.80
2023-04-02T00:08:03.096Z,5.78
2023-04-02T00:10:38.578Z,5.78
2023-04-02T00:13:11.176Z,5.77
2023-04-02T00:15:39.233Z,5.76
2023-04-02T00:18:06.676Z,5.77
2023-04-02T00:20:38.620Z,5.75
2023-04-02T00:23:06.684Z,5.74
2023-04-02T00:25:37.399Z,5.75
2023-04-02T00:28:04.674Z,5.75
2023-04-02T00:30:31.068Z,5.72
2023-04-02T00:32:58.029Z,5.70
2023-04-02T00:35:29.411Z,5.68
2023-04-02T00:37:57.186Z,5.68
2023-04-02T00:40:31.597Z,5.70
2023-04-02T00:43:00.537Z,5.69
2023-04-02T00:45:30.863Z,5.70
2023-04-02T00:48:00.580Z,5.68
2023-04-02T00:50:36.128Z,5.66
2023-04-02T00:53:24.068Z,5.63
2023-04-02T00:55:50.499Z,5.59
2023-04-02T00:58:37.377Z,5.58
2023-04-02T01:01:16.712Z,5.56
2023-04-02T01:03:44.318Z,5.54
2023-04-02T01:06:17.049Z,5.53
2023-04-02T01:09:15.885Z,5.52
2023-04-02T01:12:21.248Z,5.52
2023-04-02T01:15:17.324Z,5.51
2023-04-02T01:17:54.551Z,5.49
2023-04-02T01:20:53.744Z,5.50
2023-04-02T01:23:24.784Z,5.47
2023-04-02T01:26:06.318Z,5.47
2023-04-02T01:28:54.814Z,5.47
2023-04-02T01:31:22.590Z,5.44
2023-04-02T01:33:49.217Z,5.41
2023-04-02T01:36:38.442Z,5.40
2023-04-02T01:39:14.341Z,5.40
2023-04-02T01:42:16.012Z,5.42
2023-04-02T01:44:53.170Z,5.41
2023-04-02T01:47:25.595Z,5.40
2023-04-02T01:50:12.887Z,5.39
2023-04-02T01:52:42.203Z,5.35
2023-04-02T01:55:12.995Z,5.32
2023-04-02T01:57:43.353Z,5.31
2023-04-02T02:00:14.789Z,5.31
2023-04-02T02:02:43.172Z,5.31
2023-04-02T02:05:14.635Z,5.31
2023-04-02T02:07:42.050Z,5.30
2023-04-02T02:10:15.627Z,5.31
2023-04-02T02:12:44.528Z,5.30
2023-04-02T02:15:19.962Z,5.24
2023-04-02T02:17:46.560Z,5.20
2023-04-02T02:20:14.196Z,5.19
2023-04-02T02:22:45.716Z,5.15
2023-04-02T02:25:17.025Z,5.12
2023-04-02T02:27:54.864Z,5.05
2023-04-02T02:30:35.217Z,5.00
2023-04-02T02:33:26.206Z,4.92
2023-04-02T02:35:58.687Z,4.84
2023-04-02T02:38:34.195Z,4.82
2023-04-02T02:41:15.421Z,4.80
2023-04-02T02:43:48.456Z,4.76
2023-04-02T02:46:20.371Z,4.73
2023-04-02T02:48:48.010Z,4.71
2023-04-02T02:51:42.245Z,4.71
2023-04-02T02:54:09.186Z,4.68
2023-04-02T02:56:41.682Z,4.68
2023-04-02T02:59:11.320Z,4.70
2023-04-02T03:01:38.295Z,4.69
2023-04-02T03:04:05.095Z,4.68
2023-04-02T03:06:31.751Z,4.69
2023-04-02T03:09:06.774Z,4.68
2023-04-02T03:11:41.299Z,4.66
2023-04-02T03:14:20.418Z,4.63
2023-04-02T03:16:52.472Z,4.57
2023-04-02T03:19:58.365Z,4.58
2023-04-02T03:22:24.763Z,4.57
2023-04-02T03:25:01.837Z,4.53
2023-04-02T03:27:36.629Z,4.50
2023-04-02T03:30:30.560Z,4.47
2023-04-02T03:33:29.601Z,4.46
2023-04-02T03:36:13.041Z,4.43
2023-04-02T03:39:09.585Z,4.41
2023-04-02T03:41:52.825Z,4.41
2023-04-02T03:44:34.807Z,4.40
2023-04-02T03:47:10.408Z,4.34
2023-04-02T03:49:44.026Z,4.32
2023-04-02T03:52:13.437Z,4.32
2023-04-02T03:54:41.102Z,4.31
2023-04-02T03:57:38.482Z,4.32
2023-04-02T04:00:32.690Z,4.35
2023-04-02T04:03:08.207Z,4.34
2023-04-02T04:05:37.853Z,4.36
2023-04-02T04:08:08.154Z,4.34
2023-04-02T04:10:35.499Z,4.34
2023-04-02T04:13:14.032Z,4.34
2023-04-02T04:16:06.546Z,4.30
2023-04-02T04:18:42.528Z,4.28
2023-04-02T04:21:37.339Z,4.22
2023-04-02T04:24:33.012Z,4.18
2023-04-02T04:27:12.754Z,4.13
2023-04-02T04:29:54.148Z,4.11
2023-04-02T04:32:32.083Z,4.11
2023-04-02T04:35:07.850Z,4.10
2023-04-02T04:37:40.976Z,4.01
2023-04-02T04:40:23.802Z,4.00
2023-04-02T04:42:54.190Z,3.95
2023-04-02T04:45:56.124Z,3.89
2023-04-02T04:48:36.591Z,3.86
2023-04-02T04:51:10.448Z,3.83
2023-04-02T04:53:47.622Z,3.77
2023-04-02T04:56:19.826Z,3.76
2023-04-02T04:58:58.550Z,3.76
2023-04-02T05:01:28.392Z,3.76
2023-04-02T05:04:35.577Z,3.74
2023-04-02T05:07:27.381Z,3.72
2023-04-02T05:10:04.116Z,3.71
2023-04-02T05:12:42.250Z,3.61
2023-04-02T05:15:29.430Z,3.49
2023-04-02T05:18:00.915Z,3.36
2023-04-02T05:20:41.186Z,3.27
2023-04-02T05:23:15.631Z,3.20
2023-04-02T05:26:14.562Z,3.12
2023-04-02T05:28:48.179Z,3.08
2023-04-02T05:31:25.894Z,3.04
2023-04-02T05:33:52.888Z,2.95
2023-04-02T05:36:23.558Z,2.89
2023-04-02T05:38:52.001Z,2.84
2023-04-02T05:41:32.324Z,2.81
2023-04-02T05:44:18.331Z,2.81
2023-04-02T05:46:54.301Z,2.74
2023-04-02T05:49:29.060Z,2.73
2023-04-02T05:52:00.847Z,2.76
2023-04-02T05:54:38.115Z,2.72
2023-04-02T05:57:11.496Z,2.75
2023-04-02T05:59:43.904Z,2.72
2023-04-02T06:02:20.482Z,2.71
2023-04-02T06:05:07.367Z,2.70
2023-04-02T06:07:46.574Z,2.62
2023-04-02T06:10:20.692Z,2.56
2023-04-02T06:12:50.006Z,2.54
2023-04-02T06:15:22.651Z,2.54
2023-04-02T06:17:58.756Z,2.59
2023-04-02T06:20:26.314Z,2.63
2023-04-02T06:23:03.777Z,2.64
2023-04-02T06:25:35.846Z,2.64
2023-04-02T06:28:06.635Z,2.67
2023-04-02T06:30:39.369Z,2.77
2023-04-02T06:33:06.179Z,2.78
2023-04-02T06:35:37.198Z,2.74
2023-04-02T06:38:06.865Z,2.78
2023-04-02T06:40:59.032Z,2.77
2023-04-02T06:43:38.002Z,2.87
2023-04-02T06:46:14.051Z,3.00
2023-04-02T06:48:42.403Z,2.87
2023-04-02T06:51:12.873Z,2.90
2023-04-02T06:53:43.218Z,2.95
2023-04-02T06:56:44.650Z,2.92
2023-04-02T06:59:12.720Z,2.95
2023-04-02T07:02:06.639Z,2.97
2023-04-02T07:04:33.428Z,3.04
2023-04-02T07:06:59.956Z,2.96
2023-04-02T07:09:26.710Z,2.98
2023-04-02T07:11:53.094Z,3.06
2023-04-02T07:14:19.536Z,3.08
2023-04-02T07:16:46.504Z,3.12
2023-04-02T07:19:21.794Z,3.16
2023-04-02T07:21:48.428Z,3.22
2023-04-02T07:24:14.818Z,3.26
2023-04-02T07:26:41.882Z,3.22
2023-04-02T07:29:13.472Z,3.18
2023-04-02T07:31:40.846Z,3.19
2023-04-02T07:34:08.542Z,3.15
2023-04-02T07:36:34.958Z,3.19
2023-04-02T07:39:04.924Z,3.19
2023-04-02T07:41:31.421Z,3.24
2023-04-02T07:43:57.903Z,3.25
2023-04-02T07:46:25.757Z,3.19
2023-04-02T07:48:52.179Z,3.13
2023-04-02T07:51:21.418Z,3.18
2023-04-02T07:53:54.786Z,3.25
2023-04-02T07:56:22.854Z,3.16
2023-04-02T07:58:49.479Z,3.04
2023-04-02T08:01:27.202Z,3.07
2023-04-02T08:03:55.626Z,3.12
2023-04-02T08:06:23.226Z,3.22
2023-04-02T08:08:50.480Z,3.21
2023-04-02T08:11:17.271Z,3.16
2023-04-02T08:13:43.857Z,3.24
2023-04-02T08:16:10.602Z,3.34
2023-04-02T08:18:37.129Z,3.35
2023-04-02T08:21:07.776Z,3.35
2023-04-02T08:23:35.070Z,3.46
2023-04-02T08:26:01.792Z,3.52
2023-04-02T08:28:28.292Z,3.58
2023-04-02T08:30:54.796Z,3.63
2023-04-02T08:33:24.150Z,3.66
2023-04-02T08:35:51.211Z,3.73
2023-04-02T08:38:19.994Z,3.69
2023-04-02T08:40:50.476Z,3.63
2023-04-02T08:43:37.476Z,3.62
2023-04-02T08:46:27.168Z,3.62
2023-04-02T08:48:57.878Z,3.70
2023-04-02T08:51:27.238Z,3.67
2023-04-02T08:54:02.878Z,3.64
2023-04-02T08:56:37.314Z,3.63
2023-04-02T08:59:17.645Z,3.70
2023-04-02T09:02:11.677Z,3.77
2023-04-02T09:04:38.625Z,3.83
2023-04-02T09:07:05.314Z,3.88
2023-04-02T09:09:36.900Z,3.97
2023-04-02T09:12:04.602Z,3.99
2023-04-02T09:14:33.672Z,3.97
2023-04-02T09:17:02.620Z,3.99
2023-04-02T09:19:44.448Z,4.01
2023-04-02T09:22:21.374Z,4.22
2023-04-02T09:24:55.593Z,4.28
2023-04-02T09:27:25.713Z,4.47
2023-04-02T09:30:03.963Z,4.69
2023-04-02T09:32:40.059Z,4.74
2023-04-02T09:35:24.589Z,4.68
2023-04-02T09:38:21.906Z,4.67
2023-04-02T09:41:04.645Z,4.62
2023-04-02T09:43:32.523Z,4.72
2023-04-02T09:46:12.759Z,4.90
2023-04-02T09:48:53.289Z,5.05
2023-04-02T09:51:25.552Z,5.56
2023-04-02T09:54:08.762Z,5.79
2023-04-02T09:56:39.949Z,6.10
2023-04-02T09:59:12.494Z,6.51
2023-04-02T10:01:43.910Z,6.63
2023-04-02T10:04:44.385Z,6.85
2023-04-02T10:07:30.731Z,6.97
2023-04-02T10:09:59.317Z,7.12
2023-04-02T10:12:28.887Z,6.88
2023-04-02T10:14:57.740Z,6.86
2023-04-02T10:17:35.982Z,7.06
2023-04-02T10:20:20.175Z,7.19
2023-04-02T10:22:46.894Z,7.36
2023-04-02T10:25:15.455Z,7.46
2023-04-02T10:27:57.178Z,7.67
2023-04-02T10:30:45.297Z,7.62
2023-04-02T10:33:25.145Z,7.68
2023-04-02T10:36:04.102Z,7.60
2023-04-02T10:38:48.925Z,7.72
2023-04-02T10:41:34.185Z,7.80
2023-04-02T10:44:24.673Z,7.86
2023-04-02T10:47:14.845Z,7.93
2023-04-02T10:49:59.697Z,8.11
2023-04-02T10:52:39.344Z,8.19
2023-04-02T10:55:30.141Z,7.85
2023-04-02T10:58:03.024Z,7.97
2023-04-02T11:00:34.523Z,7.94
2023-04-02T11:03:09.215Z,8.19
2023-04-02T11:05:47.656Z,8.30
2023-04-02T11:08:20.892Z,8.41
2023-04-02T11:10:58.450Z,8.33
2023-04-02T11:13:37.191Z,8.23
2023-04-02T11:16:04.148Z,8.41
2023-04-02T11:18:38.706Z,8.56
2023-04-02T11:21:07.987Z,8.56
2023-04-02T11:23:38.667Z,8.42
2023-04-02T11:26:38.676Z,8.56
2023-04-02T11:29:14.114Z,8.93
2023-04-02T11:31:42.043Z,8.99
2023-04-02T11:34:40.755Z,8.98
2023-04-02T11:37:41.080Z,8.96
2023-04-02T11:40:13.977Z,9.06
2023-04-02T11:42:42.320Z,9.13
2023-04-02T11:45:23.607Z,9.10
2023-04-02T11:48:03.804Z,9.16
2023-04-02T11:50:31.885Z,9.02
2023-04-02T11:53:03.464Z,9.07
2023-04-02T11:55:34.935Z,9.13
2023-04-02T11:58:12.980Z,9.18
2023-04-02T12:01:14.967Z,9.30
2023-04-02T12:04:19.046Z,9.55
2023-04-02T12:06:59.951Z,9.71
2023-04-02T12:09:26.713Z,9.72
2023-04-02T12:11:59.927Z,9.70
2023-04-02T12:14:48.395Z,9.77
2023-04-02T12:17:34.700Z,9.78
2023-04-02T12:20:10.462Z,9.86
2023-04-02T12:22:47.591Z,9.81
2023-04-02T12:25:32.139Z,9.82
2023-04-02T12:28:11.012Z,9.86
2023-04-02T12:30:38.630Z,9.96
2023-04-02T12:33:37.322Z,9.86
2023-04-02T12:36:06.767Z,9.84
2023-04-02T12:38:53.912Z,9.79
2023-04-02T12:41:27.159Z,9.73
2023-04-02T12:44:24.001Z,9.80
2023-04-02T12:46:52.213Z,9.68
2023-04-02T12:49:39.935Z,9.64
2023-04-02T12:52:10.689Z,9.62
2023-04-02T12:54:45.655Z,9.68
2023-04-02T12:57:27.489Z,9.75
2023-04-02T12:59:55.561Z,9.69
2023-04-02T13:02:25.281Z,9.48
2023-04-02T13:04:57.377Z,9.47
2023-04-02T13:07:26.276Z,9.46
2023-04-02T13:09:55.573Z,9.55
2023-04-02T13:12:37.228Z,9.52
2023-04-02T13:15:22.089Z,9.54
2023-04-02T13:18:02.785Z,9.48
2023-04-02T13:20:38.146Z,9.46
2023-04-02T13:23:29.641Z,9.46
2023-04-02T13:25:58.876Z,9.41
2023-04-02T13:28:25.519Z,9.40
2023-04-02T13:30:51.937Z,9.36
2023-04-02T13:33:18.821Z,9.42
2023-04-02T13:35:45.527Z,9.50
2023-04-02T13:38:12.091Z,9.48
2023-04-02T13:40:39.130Z,9.45
2023-04-02T13:43:06.544Z,9.53
2023-04-02T13:45:37.760Z,9.62
2023-04-02T13:48:05.756Z,9.66
2023-04-02T13:50:34.239Z,9.71
2023-04-02T13:53:08.369Z,9.88
2023-04-02T13:55:39.928Z,9.87
2023-04-02T13:58:06.560Z,9.90
2023-04-02T14:00:35.886Z,9.85
2023-04-02T14:03:08.057Z,9.86
2023-04-02T14:05:40.530Z,9.85
2023-04-02T14:08:16.620Z,9.92
2023-04-02T14:11:04.881Z,9.95
2023-04-02T14:13:53.257Z,9.95
2023-04-02T14:16:38.713Z,10.08
2023-04-02T14:19:30.118Z,10.20
2023-04-02T14:22:24.339Z,10.16
2023-04-02T14:24:53.783Z,9.96
2023-04-02T14:27:29.369Z,9.89
2023-04-02T14:30:13.904Z,9.98
2023-04-02T14:32:49.028Z,10.04
2023-04-02T14:35:27.673Z,10.05
2023-04-02T14:38:12.948Z,10.12
2023-04-02T14:41:08.712Z,10.07
2023-04-02T14:44:05.962Z,10.22
2023-04-02T14:46:37.362Z,10.27
2023-04-02T14:49:24.806Z,10.33
2023-04-02T14:51:58.725Z,10.35
2023-04-02T14:54:35.992Z,10.35
2023-04-02T14:57:29.671Z,10.42
2023-04-02T15:00:33.666Z,10.41
2023-04-02T15:03:12.219Z,10.41
2023-04-02T15:05:49.807Z,10.47
2023-04-02T15:08:24.375Z,10.58
2023-04-02T15:11:09.566Z,10.57
2023-04-02T15:13:41.986Z,10.60
2023-04-02T15:16:13.586Z,10.62
2023-04-02T15:18:40.074Z,10.73
2023-04-02T15:21:23.420Z,10.69
2023-04-02T15:23:58.968Z,10.78
2023-04-02T15:26:31.606Z,10.80
2023-04-02T15:29:25.847Z,10.78
2023-04-02T15:32:03.330Z,10.74
2023-04-02T15:34:50.485Z,10.73
2023-04-02T15:37:36.773Z,10.74
2023-04-02T15:40:51.723Z,10.76
2023-04-02T15:43:41.047Z,10.78
2023-04-02T15:46:17.237Z,10.77
2023-04-02T15:48:51.326Z,10.73
2023-04-02T15:51:53.340Z,10.85
2023-04-02T15:54:45.973Z,10.90
2023-04-02T15:57:48.983Z,10.80
2023-04-02T16:00:27.853Z,10.81
2023-04-02T16:03:17.361Z,10.77
2023-04-02T16:06:05.198Z,10.82
2023-04-02T16:08:44.916Z,10.90
2023-04-02T16:11:15.119Z,10.86
2023-04-02T16:13:43.176Z,10.83
2023-04-02T16:16:26.847Z,10.76
2023-04-02T16:19:00.723Z,10.76
2023-04-02T16:21:38.542Z,10.83
2023-04-02T16:24:11.510Z,10.88
2023-04-02T16:26:56.856Z,10.80
2023-04-02T16:29:55.847Z,10.73
2023-04-02T16:32:28.392Z,10.64
2023-04-02T16:38:20.710Z,10.48
2023-04-02T16:41:09.285Z,10.50
2023-04-02T16:43:53.590Z,10.46
2023-04-02T16:47:01.825Z,10.45
2023-04-02T16:49:55.765Z,10.39
2023-04-02T16:52:38.114Z,10.41
2023-04-02T16:55:23.311Z,10.37
2023-04-02T16:57:58.816Z,10.45
2023-04-02T17:01:03.236Z,10.42
2023-04-02T17:04:11.330Z,10.32
2023-04-02T17:06:44.814Z,10.20
2023-04-02T17:09:15.585Z,9.97
2023-04-02T17:11:56.882Z,9.89
2023-04-02T17:14:42.088Z,9.91
2023-04-02T17:17:11.539Z,9.90
2023-04-02T17:19:43.661Z,9.84
2023-04-02T17:22:16.813Z,9.71
2023-04-02T17:24:49.758Z,9.82
2023-04-02T17:27:23.607Z,9.79
2023-04-02T17:29:53.150Z,9.64
2023-04-02T17:32:29.879Z,9.50
2023-04-02T17:34:57.774Z,9.40
2023-04-02T17:37:34.901Z,9.30
2023-04-02T17:40:19.914Z,9.21
2023-04-02T17:42:53.520Z,9.16
2023-04-02T17:45:29.365Z,9.00
2023-04-02T17:48:03.387Z,8.91
2023-04-02T17:51:05.854Z,8.86
2023-04-02T17:53:39.813Z,8.75
2023-04-02T17:56:27.706Z,8.65
2023-04-02T17:59:27.794Z,8.56
2023-04-02T18:02:32.833Z,8.43
2023-04-02T18:05:26.843Z,8.32
2023-04-02T18:08:27.385Z,8.26
2023-04-02T18:11:31.396Z,8.20
2023-04-02T18:14:19.371Z,8.16
2023-04-02T18:17:10.723Z,8.04
2023-04-02T18:19:58.443Z,8.01
2023-04-02T18:22:43.323Z,7.96
2023-04-02T18:25:40.897Z,7.91
2023-04-02T18:28:44.982Z,7.83
2023-04-02T18:31:24.219Z,7.74
2023-04-02T18:34:05.617Z,7.68
2023-04-02T18:36:44.339Z,7.65
2023-04-02T18:39:28.859Z,7.62
2023-04-02T18:41:58.260Z,7.58
2023-04-02T18:44:54.637Z,7.55
2023-04-02T18:47:43.380Z,7.50
2023-04-02T18:50:32.548Z,7.44
2023-04-02T18:53:01.561Z,7.40
2023-04-02T18:55:30.307Z,7.36
2023-04-02T18:58:10.844Z,7.28
2023-04-02T19:00:41.296Z,7.24
2023-04-02T19:03:28.029Z,7.21
2023-04-02T19:06:19.131Z,7.17
2023-04-02T19:08:50.249Z,7.11
2023-04-02T19:11:27.393Z,7.05
2023-04-02T19:13:54.464Z,6.98
2023-04-02T19:16:48.078Z,6.98
2023-04-02T19:19:26.981Z,6.99
2023-04-02T19:22:24.513Z,6.93
2023-04-02T19:25:26.614Z,6.87
2023-04-02T19:28:02.649Z,6.82
2023-04-02T19:30:40.598Z,6.82
2023-04-02T19:33:31.772Z,6.80
2023-04-02T19:36:02.184Z,6.78
2023-04-02T19:38:28.558Z,6.73
2023-04-02T19:41:00.696Z,6.66
2023-04-02T19:43:27.267Z,6.62
2023-04-02T19:45:54.515Z,6.62
2023-04-02T19:48:34.967Z,6.59
2023-04-02T19:51:01.717Z,6.59
2023-04-02T19:53:28.135Z,6.55
2023-04-02T19:55:57.114Z,6.54
2023-04-02T19:58:32.097Z,6.53
2023-04-02T20:00:58.781Z,6.48
2023-04-02T20:03:25.362Z,6.42
2023-04-02T20:05:52.594Z,6.39
2023-04-02T20:08:19.205Z,6.35
2023-04-02T20:10:46.012Z,6.29
2023-04-02T20:13:12.778Z,6.22
2023-04-02T20:15:40.329Z,6.16
2023-04-02T20:18:07.109Z,6.09
2023-04-02T20:20:33.861Z,6.02
2023-04-02T20:23:00.782Z,5.99
2023-04-02T20:25:27.289Z,5.94
2023-04-02T20:27:53.913Z,5.91
2023-04-02T20:30:20.556Z,5.85
2023-04-02T20:32:47.256Z,5.82
2023-04-02T20:35:13.667Z,5.81
2023-04-02T20:37:41.851Z,5.79
2023-04-02T20:40:10.014Z,5.72
2023-04-02T20:42:36.553Z,5.68
2023-04-02T20:45:05.101Z,5.63
2023-04-02T20:47:31.597Z,5.60
2023-04-02T20:49:57.982Z,5.60
2023-04-02T20:52:24.434Z,5.56
2023-04-02T20:54:50.990Z,5.50
2023-04-02T20:57:19.579Z,5.49
2023-04-02T20:59:46.370Z,5.44
2023-04-02T21:02:12.944Z,5.39
2023-04-02T21:04:39.402Z,5.34
2023-04-02T21:07:06.173Z,5.31
2023-04-02T21:09:32.651Z,5.24
2023-04-02T21:11:59.174Z,5.21
2023-04-02T21:14:26.089Z,5.17
2023-04-02T21:16:52.627Z,5.16
2023-04-02T21:19:19.026Z,5.13
2023-04-02T21:21:45.594Z,5.08
2023-04-02T21:24:12.023Z,5.03
2023-04-02T21:26:40.475Z,4.96
2023-04-02T21:29:07.279Z,4.94
2023-04-02T21:31:39.463Z,4.89
2023-04-02T21:34:07.544Z,4.85
2023-04-02T21:36:36.572Z,4.82
2023-04-02T21:39:20.059Z,4.79
2023-04-02T21:41:49.974Z,4.73
2023-04-02T21:44:19.340Z,4.69
2023-04-02T21:46:46.576Z,4.67
2023-04-02T21:49:16.420Z,4.61
2023-04-02T21:51:44.486Z,4.55
2023-04-02T21:54:11.227Z,4.51
2023-04-02T21:56:40.638Z,4.48
2023-04-02T21:59:08.921Z,4.44
2023-04-02T22:01:41.637Z,4.41
2023-04-02T22:04:09.323Z,4.38
2023-04-02T22:06:39.513Z,4.34
2023-04-02T22:09:09.566Z,4.30
2023-04-02T22:11:45.412Z,4.26
2023-04-02T22:14:12.388Z,4.25
2023-04-02T22:16:39.725Z,4.22
2023-04-02T22:19:09.353Z,4.19
2023-04-02T22:21:36.767Z,4.14
2023-04-02T22:24:06.286Z,4.09
2023-04-02T22:26:33.795Z,4.04
2023-04-02T22:29:00.775Z,4.01
2023-04-02T22:31:30.137Z,3.97
2023-04-02T22:33:58.034Z,3.94
2023-04-02T22:36:25.846Z,3.90
2023-04-02T22:38:53.079Z,3.86
2023-04-02T22:41:26.244Z,3.82
2023-04-02T22:43:53.384Z,3.79
2023-04-02T22:46:20.781Z,3.76
2023-04-02T22:48:48.449Z,3.72
2023-04-02T22:51:16.954Z,3.66
2023-04-02T22:53:43.742Z,3.64
2023-04-02T22:56:22.045Z,3.63
2023-04-02T22:58:48.931Z,3.56
2023-04-02T23:01:21.850Z,3.55
2023-04-02T23:03:49.328Z,3.53
2023-04-02T23:06:17.702Z,3.50
2023-04-02T23:08:45.592Z,3.46
2023-04-02T23:11:15.155Z,3.46
2023-04-02T23:13:42.622Z,3.44
2023-04-02T23:16:13.028Z,3.42
2023-04-02T23:18:40.884Z,3.39
2023-04-02T23:21:08.553Z,3.36
2023-04-02T23:23:35.872Z,3.35
2023-04-02T23:26:16.007Z,3.31
2023-04-02T23:28:42.563Z,3.29
2023-04-02T23:31:13.004Z,3.24
2023-04-02T23:33:39.664Z,3.20
2023-04-02T23:36:10.202Z,3.16
2023-04-02T23:38:36.867Z,3.14
2023-04-02T23:41:03.704Z,3.12
2023-04-02T23:43:30.358Z,3.09
2023-04-02T23:45:56.940Z,3.07
2023-04-02T23:48:23.559Z,3.04
2023-04-02T23:50:50.056Z,3.03
2023-04-02T23:53:16.923Z,2.99
2023-04-02T23:55:43.422Z,2.96
2023-04-02T23:58:09.883Z,2.93
